Terminal Aerodrome Forecast
Issued by NWS Twin Cities, MN

Home | Current Version | Previous Version | Graphics & Text | Print | Product List | Glossary On
Versions: 1 2 3 4 5 6 7 8 9 10 11 12 13 14 15 16 17 18 19 20 21 22 23 24 25 26 27
000
FTUS43 KMPX 282142 AAB
TAFEAU
TAF AMD
KEAU 282142Z 2822/2918 15005KT 6SM -SHRA VCTS BKN035CB OVC050
     FM290200 VRB03KT P6SM SCT050
     FM290600 00000KT 4SM BR SCT001
     FM290830 00000KT 1/2SM FG OVC001
     FM291400 30005KT 5SM BR OVC050=

USA.gov is the U.S. government's official web portal to all federal, state and local government web resources and services.